Time;durP1;ratioP1;P1;durP2;ratioP2;P2;SDS_P1;SDS_P2;PMS_P1;PMS_P2;Temp;Humidity;BMP_temperature;BMP_pressure;BME280_temperature;BME280_humidity;BME280_pressure;Samples;Min_cycle;Max_cycle;Signal;HPM_P1;HPM_P2
2024/03/12 00:02:00;;;;;;;;;;;;;;;7.23;100.00;100973.53;5094239;28;20124;-79
2024/03/12 00:04:27;;;;;;;;;;;;;;;7.17;100.00;100978.88;5088841;28;20194;-78
2024/03/12 00:06:52;;;;;;;;;;;;;;;7.11;100.00;100983.38;5093847;28;20203;-79
2024/03/12 00:09:18;;;;;;;;;;;;;;;7.06;100.00;100987.81;5086075;28;20265;-78
2024/03/12 00:11:43;;;;;;;;;;;;;;;7.08;100.00;100990.41;5095345;28;20230;-78
2024/03/12 00:14:08;;;;;;;;;;;;;;;6.99;100.00;100988.84;5091191;28;20233;-78
2024/03/12 00:16:34;;;;;;;;;;;;;;;6.95;100.00;100999.38;5094545;28;20268;-78
2024/03/12 00:19:00;;;;;;;;;;;;;;;7.01;100.00;100994.88;5103388;28;20357;-78
2024/03/12 00:21:25;;;;;;;;;;;;;;;7.05;100.00;101000.88;5096039;28;20292;-78
2024/03/12 00:23:51;;;;;;;;;;;;;;;7.06;100.00;101003.44;5096184;28;20135;-79
2024/03/12 00:26:17;;;;;;;;;;;;;;;7.09;100.00;101008.59;5096970;28;19951;-78
2024/03/12 00:28:43;;;;;;;;;;;;;;;7.05;100.00;101016.50;5087501;28;19920;-78
2024/03/12 00:31:09;;;;;;;;;;;;;;;6.99;100.00;101014.91;5093357;28;20338;-78
2024/03/12 00:33:35;;;;;;;;;;;;;;;6.97;100.00;101018.41;5098895;28;20250;-78
2024/03/12 00:36:00;;;;;;;;;;;;;;;6.98;100.00;101017.53;5103803;28;20134;-78
2024/03/12 00:38:28;;;;;;;;;;;;;;;6.99;100.00;101024.47;5097177;28;20194;-78
2024/03/12 00:40:54;;;;;;;;;;;;;;;7.01;100.00;101030.50;5096130;28;19940;-78
2024/03/12 00:43:20;;;;;;;;;;;;;;;6.98;100.00;101025.34;5097678;28;19958;-79
2024/03/12 00:45:46;;;;;;;;;;;;;;;6.94;100.00;101026.31;5115263;28;19920;-79
2024/03/12 00:48:12;;;;;;;;;;;;;;;7.03;100.00;101032.16;5113566;28;20153;-78
2024/03/12 00:50:38;;;;;;;;;;;;;;;7.04;100.00;101030.41;5096926;28;19961;-78
2024/03/12 00:53:04;;;;;;;;;;;;;;;7.04;100.00;101041.69;5102072;28;19959;-78
2024/03/12 00:55:29;;;;;;;;;;;;;;;7.01;100.00;101039.16;5097495;28;19922;-78
2024/03/12 00:57:55;;;;;;;;;;;;;;;7.08;100.00;101047.69;5095721;28;19955;-78
2024/03/12 01:00:28;;;;;;;;;;;;;;;7.07;100.00;101046.81;5098058;28;19922;-78
2024/03/12 01:02:54;;;;;;;;;;;;;;;7.07;100.00;101057.22;5089141;28;19920;-78
2024/03/12 01:05:21;;;;;;;;;;;;;;;7.01;100.00;101046.97;5093650;28;19943;-78
2024/03/12 01:07:47;;;;;;;;;;;;;;;6.95;100.00;101061.84;5087043;28;20243;-78
2024/03/12 01:10:13;;;;;;;;;;;;;;;6.89;100.00;101063.72;5115231;28;19951;-79
2024/03/12 01:12:39;;;;;;;;;;;;;;;6.99;100.00;101055.72;5090390;28;20245;-78
2024/03/12 01:15:09;;;;;;;;;;;;;;;7.05;100.00;101063.38;5099339;28;19923;-78
2024/03/12 01:17:37;;;;;;;;;;;;;;;7.09;100.00;101058.09;5098422;28;19920;-78
2024/03/12 01:20:05;;;;;;;;;;;;;;;7.08;100.00;101063.31;5104414;28;19965;-78
2024/03/12 01:22:30;;;;;;;;;;;;;;;7.01;100.00;101059.13;5095798;28;19955;-78
2024/03/12 01:24:55;;;;;;;;;;;;;;;7.05;100.00;101058.16;5093441;28;20413;-78
2024/03/12 01:27:22;;;;;;;;;;;;;;;7.06;100.00;101068.56;5100425;28;19924;-78
2024/03/12 01:29:48;;;;;;;;;;;;;;;7.11;100.00;101066.72;5099952;28;19943;-78
2024/03/12 01:32:15;;;;;;;;;;;;;;;7.15;100.00;101064.00;5086727;28;20286;-78
2024/03/12 01:34:42;;;;;;;;;;;;;;;7.10;100.00;101077.16;5089904;28;20349;-78
2024/03/12 01:37:08;;;;;;;;;;;;;;;7.11;100.00;101084.94;5095653;28;19984;-78
2024/03/12 01:39:38;;;;;;;;;;;;;;;7.08;100.00;101078.94;5094820;28;19912;-78
2024/03/12 01:42:04;;;;;;;;;;;;;;;7.06;100.00;101086.78;5095406;28;20118;-78
2024/03/12 01:44:30;;;;;;;;;;;;;;;7.10;100.00;101087.56;5102889;28;19927;-79
2024/03/12 01:46:55;;;;;;;;;;;;;;;7.15;100.00;101082.25;5094286;28;20195;-79
2024/03/12 01:49:21;;;;;;;;;;;;;;;7.19;100.00;101087.38;5104140;28;20121;-79
2024/03/12 01:51:46;;;;;;;;;;;;;;;7.05;100.00;101087.66;5095263;28;19926;-79
2024/03/12 01:54:11;;;;;;;;;;;;;;;7.09;100.00;101086.72;5107777;28;20234;-79
2024/03/12 01:56:37;;;;;;;;;;;;;;;7.13;100.00;101100.53;5094824;28;19920;-79
2024/03/12 01:59:02;;;;;;;;;;;;;;;7.11;100.00;101097.97;5088310;28;19919;-79
2024/03/12 02:01:27;;;;;;;;;;;;;;;7.08;100.00;101099.78;5088430;28;20161;-79
2024/03/12 02:03:52;;;;;;;;;;;;;;;7.12;100.00;101101.41;5094723;28;19920;-79
2024/03/12 02:06:19;;;;;;;;;;;;;;;7.16;100.00;101100.44;5088400;28;19964;-79
2024/03/12 02:08:45;;;;;;;;;;;;;;;7.10;100.00;101096.22;5097993;28;19912;-79
2024/03/12 02:11:11;;;;;;;;;;;;;;;6.91;100.00;101098.41;5090416;28;19920;-79
2024/03/12 02:13:37;;;;;;;;;;;;;;;6.94;100.00;101104.44;5099693;28;19920;-79
2024/03/12 02:16:03;;;;;;;;;;;;;;;6.87;100.00;101108.91;5106456;28;19916;-79
2024/03/12 02:18:28;;;;;;;;;;;;;;;6.79;100.00;101114.25;5105619;28;19920;-79
2024/03/12 02:20:53;;;;;;;;;;;;;;;6.83;100.00;101107.25;5101554;28;19930;-79
2024/03/12 02:23:19;;;;;;;;;;;;;;;6.80;100.00;101113.34;5094206;28;20119;-79
2024/03/12 02:25:44;;;;;;;;;;;;;;;6.89;100.00;101117.53;5093729;28;19965;-79
2024/03/12 02:28:09;;;;;;;;;;;;;;;6.92;100.00;101120.06;5097294;28;19920;-79
2024/03/12 02:30:35;;;;;;;;;;;;;;;6.90;100.00;101114.91;5093493;28;19920;-79
2024/03/12 02:33:02;;;;;;;;;;;;;;;6.96;100.00;101116.50;5101718;28;19962;-79
2024/03/12 02:35:27;;;;;;;;;;;;;;;7.00;100.00;101120.75;5094086;28;19970;-79
2024/03/12 02:37:53;;;;;;;;;;;;;;;7.03;100.00;101119.84;5095562;28;19920;-79
2024/03/12 02:40:20;;;;;;;;;;;;;;;6.98;100.00;101117.31;5094920;28;19943;-79
2024/03/12 02:42:45;;;;;;;;;;;;;;;7.00;100.00;101125.97;5087274;28;19919;-79
2024/03/12 02:45:14;;;;;;;;;;;;;;;6.92;100.00;101128.72;5093778;28;19994;-79
2024/03/12 02:47:40;;;;;;;;;;;;;;;6.98;100.00;101127.75;5097392;28;19928;-79
2024/03/12 02:50:06;;;;;;;;;;;;;;;6.92;100.00;101123.53;5098084;28;19912;-78
2024/03/12 02:52:31;;;;;;;;;;;;;;;6.98;100.00;101126.91;5094809;28;19927;-79
2024/03/12 02:54:57;;;;;;;;;;;;;;;6.94;100.00;101128.72;5103141;28;19970;-79
2024/03/12 02:57:22;;;;;;;;;;;;;;;6.95;100.00;101129.56;5096612;28;19957;-79
2024/03/12 02:59:48;;;;;;;;;;;;;;;6.93;100.00;101129.63;5089182;28;20089;-79
2024/03/12 03:02:13;;;;;;;;;;;;;;;6.96;100.00;101120.88;5093104;28;19948;-79
2024/03/12 03:04:39;;;;;;;;;;;;;;;6.91;100.00;101123.56;5086080;28;20003;-79
2024/03/12 03:07:05;;;;;;;;;;;;;;;6.85;100.00;101119.34;5104222;28;19931;-78
2024/03/12 03:09:30;;;;;;;;;;;;;;;6.87;100.00;101121.91;5100746;28;19927;-79
2024/03/12 03:11:56;;;;;;;;;;;;;;;6.93;100.00;101129.63;5087192;28;20236;-79
2024/03/12 03:14:21;;;;;;;;;;;;;;;6.90;100.00;101119.25;5103035;28;19924;-79
2024/03/12 03:16:48;;;;;;;;;;;;;;;6.96;100.00;101118.25;5089741;28;20075;-79
2024/03/12 03:19:13;;;;;;;;;;;;;;;6.96;100.00;101118.25;5088844;28;20208;-79
2024/03/12 03:21:38;;;;;;;;;;;;;;;6.94;100.00;101114.84;5103284;28;20258;-79
2024/03/12 03:24:04;;;;;;;;;;;;;;;6.92;100.00;101117.47;5093909;28;19923;-78
2024/03/12 03:26:30;;;;;;;;;;;;;;;6.94;100.00;101120.91;5093107;28;19924;-78
2024/03/12 03:28:55;;;;;;;;;;;;;;;6.91;100.00;101114.03;5092087;28;19991;-78
2024/03/12 03:31:21;;;;;;;;;;;;;;;6.95;100.00;101116.53;5085951;28;19921;-77
2024/03/12 03:33:47;;;;;;;;;;;;;;;6.92;100.00;101120.06;5094786;28;19920;-77
2024/03/12 03:36:13;;;;;;;;;;;;;;;6.94;100.00;101120.03;5093512;28;20134;-78
2024/03/12 03:38:40;;;;;;;;;;;;;;;6.96;100.00;101116.50;5088543;28;19919;-77
2024/03/12 03:41:06;;;;;;;;;;;;;;;6.95;100.00;101122.63;5089392;28;20215;-77
2024/03/12 03:43:31;;;;;;;;;;;;;;;6.96;100.00;101128.69;5101528;28;19916;-78
2024/03/12 03:45:56;;;;;;;;;;;;;;;6.98;100.00;101130.34;5108480;28;19977;-78
2024/03/12 03:48:21;;;;;;;;;;;;;;;6.90;100.00;101133.13;5097042;28;20170;-78
2024/03/12 03:50:47;;;;;;;;;;;;;;;6.92;100.00;101135.69;5092268;28;19920;-78
2024/03/12 03:53:13;;;;;;;;;;;;;;;6.88;100.00;101128.84;5107093;28;19983;-78
2024/03/12 03:55:39;;;;;;;;;;;;;;;6.93;100.00;101142.63;5101012;28;20174;-79
2024/03/12 03:58:04;;;;;;;;;;;;;;;6.97;100.00;101148.59;5092106;28;19918;-79
2024/03/12 04:00:31;;;;;;;;;;;;;;;6.95;100.00;101147.78;5099115;28;19915;-78
2024/03/12 04:02:56;;;;;;;;;;;;;;;6.98;100.00;101150.34;5091753;28;20015;-79
2024/03/12 04:05:22;;;;;;;;;;;;;;;6.98;100.00;101153.78;5103925;28;19919;-78
2024/03/12 04:07:47;;;;;;;;;;;;;;;6.98;100.00;101153.78;5093536;28;20254;-79
2024/03/12 04:10:13;;;;;;;;;;;;;;;6.97;100.00;101161.63;5097243;28;19957;-78
2024/03/12 04:12:41;;;;;;;;;;;;;;;6.89;100.00;101169.59;5091590;28;20116;-78
2024/03/12 04:15:06;;;;;;;;;;;;;;;6.89;100.00;101172.19;5113693;28;19920;-78
2024/03/12 04:17:31;;;;;;;;;;;;;;;6.91;100.00;101173.03;5096378;28;19927;-78
2024/03/12 04:19:57;;;;;;;;;;;;;;;6.95;100.00;101173.81;5108232;28;19926;-78
2024/03/12 04:22:22;;;;;;;;;;;;;;;7.01;100.00;101184.13;5099380;28;20269;-78
2024/03/12 04:24:48;;;;;;;;;;;;;;;6.98;100.00;101179.81;5098929;28;19908;-78
2024/03/12 04:27:13;;;;;;;;;;;;;;;7.02;100.00;101181.50;5106026;28;19924;-79
2024/03/12 04:29:40;;;;;;;;;;;;;;;6.96;100.00;101184.22;5104799;28;19920;-79
2024/03/12 04:32:05;;;;;;;;;;;;;;;6.96;100.00;101184.22;5095807;28;19912;-78
2024/03/12 04:34:33;;;;;;;;;;;;;;;7.06;100.00;101188.34;5097247;28;19981;-77
2024/03/12 04:36:59;;;;;;;;;;;;;;;7.07;100.00;101197.03;5091981;28;19912;-78
2024/03/12 04:39:30;;;;;;;;;;;;;;;7.13;100.00;101191.69;5090840;28;20225;-78
2024/03/12 04:42:04;;;;;;;;;;;;;;;7.19;100.00;101188.09;5092931;28;20115;-77
2024/03/12 04:44:30;;;;;;;;;;;;;;;7.19;100.00;101198.53;5091788;28;19958;-77
2024/03/12 04:46:55;;;;;;;;;;;;;;;7.16;100.00;101201.19;5091915;28;20359;-76
2024/03/12 04:49:20;;;;;;;;;;;;;;;7.10;100.00;101210.00;5090560;28;19999;-76
2024/03/12 04:51:46;;;;;;;;;;;;;;;7.14;100.00;101203.81;5093355;28;19920;-76
2024/03/12 04:54:11;;;;;;;;;;;;;;;7.19;100.00;101216.75;5094984;28;19920;-75
2024/03/12 04:56:37;;;;;;;;;;;;;;;7.18;100.00;101222.84;5091698;28;20116;-76
2024/03/12 04:59:02;;;;;;;;;;;;;;;7.21;100.00;101215.81;5092279;28;20075;-77
2024/03/12 05:01:28;;;;;;;;;;;;;;;7.18;100.00;101220.25;5090063;28;20132;-77
2024/03/12 05:03:53;;;;;;;;;;;;;;;7.15;100.00;101225.50;5090061;28;20260;-77
2024/03/12 05:06:19;;;;;;;;;;;;;;;7.10;100.00;101234.28;5094544;28;19931;-77
2024/03/12 05:08:44;;;;;;;;;;;;;;;7.09;100.00;101231.69;5089801;28;19943;-77
2024/03/12 05:11:09;;;;;;;;;;;;;;;7.10;100.00;101236.03;5093723;28;20084;-77
2024/03/12 05:13:35;;;;;;;;;;;;;;;7.00;100.00;101242.28;5095554;28;20040;-77
2024/03/12 05:16:00;;;;;;;;;;;;;;;6.94;100.00;101232.00;5095205;28;19950;-77
2024/03/12 05:18:25;;;;;;;;;;;;;;;6.99;100.00;101243.19;5093530;28;20034;-77
2024/03/12 05:20:51;;;;;;;;;;;;;;;7.00;100.00;101244.91;5076934;28;19921;-77
2024/03/12 05:23:16;;;;;;;;;;;;;;;7.01;100.00;101241.44;5075528;28;19955;-77
2024/03/12 05:25:43;;;;;;;;;;;;;;;6.98;100.00;101252.75;5094571;28;19931;-77
2024/03/12 05:28:09;;;;;;;;;;;;;;;6.94;100.00;101261.50;5093395;28;20357;-77
2024/03/12 05:30:40;;;;;;;;;;;;;;;6.96;100.00;101262.31;5079320;28;19935;-77
2024/03/12 05:33:09;;;;;;;;;;;;;;;7.00;100.00;101268.34;5075275;28;19944;-77
2024/03/12 05:35:35;;;;;;;;;;;;;;;7.01;100.00;101270.91;5082923;28;19983;-77
2024/03/12 05:41:40;;;;;;;;;;;;;;;6.97;100.00;101269.28;5088287;28;19951;-77
2024/03/12 05:49:06;;;;;;;;;;;;;;;6.95;100.00;101281.47;5077943;28;19946;-77
2024/03/12 05:51:34;;;;;;;;;;;;;;;6.91;100.00;101284.97;5094122;28;19971;-77
2024/03/12 05:54:00;;;;;;;;;;;;;;;6.94;100.00;101286.69;5074377;28;20226;-77
2024/03/12 05:56:26;;;;;;;;;;;;;;;6.90;100.00;101289.34;5076430;28;19912;-77
2024/03/12 05:58:51;;;;;;;;;;;;;;;6.92;100.00;101284.97;5075027;28;20100;-77
2024/03/12 06:01:16;;;;;;;;;;;;;;;6.86;100.00;101290.28;5079718;28;19920;-77
2024/03/12 06:03:42;;;;;;;;;;;;;;;6.84;100.00;101288.59;5075251;28;19916;-77
2024/03/12 06:06:07;;;;;;;;;;;;;;;6.87;100.00;101292.00;5087255;28;19924;-77
2024/03/12 06:08:33;;;;;;;;;;;;;;;6.85;100.00;101292.91;5094809;28;19943;-78
2024/03/12 06:10:58;;;;;;;;;;;;;;;6.87;100.00;101292.00;5082877;28;19966;-77
2024/03/12 06:13:24;;;;;;;;;;;;;;;6.91;100.00;101301.50;5090944;28;19988;-78
2024/03/12 06:15:50;;;;;;;;;;;;;;;6.93;100.00;101306.69;5094396;28;19943;-78
2024/03/12 06:18:15;;;;;;;;;;;;;;;6.91;100.00;101301.50;5095933;28;19927;-78
2024/03/12 06:20:45;;;;;;;;;;;;;;;6.95;100.00;101311.81;5076576;28;19928;-77
2024/03/12 06:23:11;;;;;;;;;;;;;;;6.91;100.00;101311.91;5074394;28;19940;-78
2024/03/12 06:25:36;;;;;;;;;;;;;;;6.91;100.00;101311.03;5081939;28;20318;-78
2024/03/12 06:28:05;;;;;;;;;;;;;;;6.94;100.00;101320.53;5073956;28;19970;-77
2024/03/12 06:30:30;;;;;;;;;;;;;;;6.94;100.00;101320.53;5081749;28;19920;-78
2024/03/12 06:32:56;;;;;;;;;;;;;;;6.95;100.00;101314.44;5074107;28;20376;-77
2024/03/12 06:35:21;;;;;;;;;;;;;;;6.95;100.00;101317.03;5097682;28;19926;-78
2024/03/12 06:37:47;;;;;;;;;;;;;;;6.94;100.00;101318.78;5089348;28;19951;-77
2024/03/12 06:40:16;;;;;;;;;;;;;;;6.91;100.00;101314.50;5084469;28;19908;-77
2024/03/12 06:42:42;;;;;;;;;;;;;;;6.88;100.00;101326.72;5085858;28;19920;-77
2024/03/12 06:45:11;;;;;;;;;;;;;;;6.87;100.00;101325.00;5090112;28;19991;-77
2024/03/12 06:47:40;;;;;;;;;;;;;;;6.84;100.00;101327.63;5085446;28;20240;-77
2024/03/12 06:50:08;;;;;;;;;;;;;;;6.80;100.00;101326.84;5082552;28;19916;-77
2024/03/12 06:52:34;;;;;;;;;;;;;;;6.79;100.00;101327.72;5084935;28;19943;-77
2024/03/12 06:55:01;;;;;;;;;;;;;;;6.82;100.00;101332.00;5087221;28;19948;-77
2024/03/12 06:57:26;;;;;;;;;;;;;;;6.73;100.00;101330.41;5082174;28;19984;-77
2024/03/12 06:59:53;;;;;;;;;;;;;;;6.68;100.00;101327.91;5089907;28;19942;-77
2024/03/12 07:02:19;;;;;;;;;;;;;;;6.67;100.00;101334.00;5085026;28;19913;-77
2024/03/12 07:04:47;;;;;;;;;;;;;;;6.64;100.00;101331.47;5083630;28;19920;-77
2024/03/12 07:07:18;;;;;;;;;;;;;;;6.61;100.00;101338.47;5087840;28;19970;-77
2024/03/12 07:09:44;;;;;;;;;;;;;;;6.60;100.00;101341.94;5089632;28;19922;-77
2024/03/12 07:12:09;;;;;;;;;;;;;;;6.55;100.00;101347.22;5085806;28;19941;-77
2024/03/12 07:14:45;;;;;;;;;;;;;;;6.59;100.00;101343.69;5089408;28;19984;-77
2024/03/12 07:17:10;;;;;;;;;;;;;;;6.58;100.00;101351.50;5088160;28;20278;-77
2024/03/12 07:19:39;;;;;;;;;;;;;;;6.58;100.00;101346.31;5095792;28;19993;-77
2024/03/12 07:22:07;;;;;;;;;;;;;;;6.56;100.00;101354.13;5086151;28;19943;-77
2024/03/12 07:24:34;;;;;;;;;;;;;;;6.57;100.00;101355.88;5096420;28;19920;-77
2024/03/12 07:26:59;;;;;;;;;;;;;;;6.61;100.00;101352.31;5096092;28;19924;-77
2024/03/12 07:29:25;;;;;;;;;;;;;;;6.64;100.00;101357.50;5082774;28;20212;-77
2024/03/12 07:31:51;;;;;;;;;;;;;;;6.63;100.00;101353.16;5085149;28;20007;-77
2024/03/12 07:34:17;;;;;;;;;;;;;;;6.65;100.00;101353.13;5088925;28;19920;-78
2024/03/12 07:36:42;;;;;;;;;;;;;;;6.66;100.00;101355.72;5094230;28;19920;-78
2024/03/12 07:39:24;;;;;;;;;;;;;;;6.65;100.00;101350.53;5081710;28;19955;-78
2024/03/12 07:41:49;;;;;;;;;;;;;;;6.66;100.00;101355.72;5085201;28;19920;-78
2024/03/12 07:44:15;;;;;;;;;;;;;;;6.66;100.00;101355.72;5087695;28;19927;-78
2024/03/12 07:46:43;;;;;;;;;;;;;;;6.67;100.00;101364.38;5090647;28;19969;-78
2024/03/12 07:49:08;;;;;;;;;;;;;;;6.71;100.00;101371.25;5086525;28;20472;-78
2024/03/12 07:51:34;;;;;;;;;;;;;;;6.78;100.00;101374.63;5088486;28;20021;-78
2024/03/12 07:53:59;;;;;;;;;;;;;;;6.73;100.00;101372.06;5087952;28;20164;-78
2024/03/12 07:56:27;;;;;;;;;;;;;;;6.73;100.00;101374.69;5086099;28;19927;-78
2024/03/12 07:58:52;;;;;;;;;;;;;;;6.77;100.00;101378.09;5087116;28;19919;-78
2024/03/12 08:01:18;;;;;;;;;;;;;;;6.79;100.00;101374.59;5088054;28;20115;-78
2024/03/12 08:03:43;;;;;;;;;;;;;;;6.80;100.00;101378.06;5083978;28;20041;-78
2024/03/12 08:06:12;;;;;;;;;;;;;;;6.83;100.00;101378.00;5083433;28;20131;-78
2024/03/12 08:08:37;;;;;;;;;;;;;;;6.83;100.00;101381.47;5082619;28;19959;-78
2024/03/12 08:11:04;;;;;;;;;;;;;;;6.91;100.00;101381.31;5076780;28;20163;-78
2024/03/12 08:13:30;;;;;;;;;;;;;;;6.96;100.00;101391.69;5083700;28;19932;-77
2024/03/12 08:15:55;;;;;;;;;;;;;;;7.03;100.00;101396.75;5076418;28;19920;-77
2024/03/12 08:18:21;;;;;;;;;;;;;;;7.03;100.00;101396.75;5078523;28;20006;-77
2024/03/12 08:20:47;;;;;;;;;;;;;;;7.01;100.00;101390.72;5086009;28;19916;-77
2024/03/12 08:23:14;;;;;;;;;;;;;;;7.03;100.00;101388.09;5085624;28;19955;-78
2024/03/12 08:25:39;;;;;;;;;;;;;;;7.06;100.00;101388.91;5082490;28;19943;-78
2024/03/12 08:28:05;;;;;;;;;;;;;;;7.06;100.00;101388.91;5080714;28;19983;-77
2024/03/12 08:30:31;;;;;;;;;;;;;;;7.10;100.00;101394.91;5076156;28;19923;-78
2024/03/12 08:32:58;;;;;;;;;;;;;;;7.10;100.00;101397.50;5076681;28;20185;-78
2024/03/12 08:35:24;;;;;;;;;;;;;;;7.04;100.00;101393.28;5086093;28;20230;-77
2024/03/12 08:37:49;;;;;;;;;;;;;;;7.03;100.00;101390.69;5077768;28;19986;-77
2024/03/12 08:40:15;;;;;;;;;;;;;;;7.00;100.00;101390.75;5075848;28;19909;-77
2024/03/12 08:42:41;;;;;;;;;;;;;;;7.05;100.00;101389.78;5074741;28;20073;-77
2024/03/12 08:45:08;;;;;;;;;;;;;;;7.05;100.00;101397.59;5086970;28;20227;-77
2024/03/12 08:47:34;;;;;;;;;;;;;;;7.06;100.00;101404.53;5087463;28;19924;-77
2024/03/12 08:49:59;;;;;;;;;;;;;;;7.03;100.00;101396.75;5090539;28;20001;-77
2024/03/12 08:52:24;;;;;;;;;;;;;;;7.04;100.00;101395.88;5088460;28;19983;-76
2024/03/12 08:54:50;;;;;;;;;;;;;;;7.11;100.00;101399.22;5086679;28;19912;-77
2024/03/12 08:57:15;;;;;;;;;;;;;;;7.12;100.00;101398.34;5091105;28;19912;-76
2024/03/12 08:59:41;;;;;;;;;;;;;;;7.20;100.00;101401.66;5087824;28;19934;-77
2024/03/12 09:02:06;;;;;;;;;;;;;;;7.20;100.00;101403.41;5087645;28;19919;-77
2024/03/12 09:04:32;;;;;;;;;;;;;;;7.22;100.00;101406.84;5087737;28;19920;-76
2024/03/12 09:06:57;;;;;;;;;;;;;;;7.27;100.00;101410.25;5086520;28;19924;-77
2024/03/12 09:09:23;;;;;;;;;;;;;;;7.27;100.00;101405.03;5090018;28;19955;-77
2024/03/12 09:11:49;;;;;;;;;;;;;;;7.29;100.00;101409.34;5087359;28;19920;-76
2024/03/12 09:14:14;;;;;;;;;;;;;;;7.30;100.00;101403.22;5088504;28;19958;-76
2024/03/12 09:16:40;;;;;;;;;;;;;;;7.32;100.00;101405.81;5085930;28;19920;-76
2024/03/12 09:19:06;;;;;;;;;;;;;;;7.36;100.00;101409.22;5083986;28;20130;-77
2024/03/12 09:21:33;;;;;;;;;;;;;;;7.38;100.00;101404.84;5077145;28;19916;-76
2024/03/12 09:24:00;;;;;;;;;;;;;;;7.42;100.00;101406.50;5074794;28;19927;-76
2024/03/12 09:26:26;;;;;;;;;;;;;;;7.47;100.00;101415.09;5075498;28;20036;-77
2024/03/12 09:28:51;;;;;;;;;;;;;;;7.46;100.00;101421.22;5073046;28;20000;-76
2024/03/12 09:31:18;;;;;;;;;;;;;;;7.45;100.00;101411.66;5085434;28;20215;-77
2024/03/12 09:33:44;;;;;;;;;;;;;;;7.44;100.00;101412.53;5087857;28;20079;-77
2024/03/12 09:36:10;;;;;;;;;;;;;;;7.42;100.00;101422.13;5082653;28;20223;-76
2024/03/12 09:38:35;;;;;;;;;;;;;;;7.41;100.00;101425.63;5074928;28;19920;-76
2024/03/12 09:41:03;;;;;;;;;;;;;;;7.39;100.00;101423.06;5073213;28;19921;-77
2024/03/12 09:43:30;;;;;;;;;;;;;;;7.39;100.00;101425.66;5074487;28;20093;-76
2024/03/12 09:45:56;;;;;;;;;;;;;;;7.42;100.00;101420.41;5074768;28;19924;-77
2024/03/12 09:48:21;;;;;;;;;;;;;;;7.45;100.00;101422.06;5076537;28;19920;-77
2024/03/12 09:50:49;;;;;;;;;;;;;;;7.49;100.00;101419.41;5080994;28;19931;-76
2024/03/12 09:53:14;;;;;;;;;;;;;;;7.59;100.00;101420.06;5083196;28;20109;-76
2024/03/12 09:55:40;;;;;;;;;;;;;;;7.66;100.00;101424.28;5074954;28;19987;-77
2024/03/12 09:58:07;;;;;;;;;;;;;;;7.69;100.00;101425.97;5074751;28;20413;-76
2024/03/12 10:00:33;;;;;;;;;;;;;;;7.72;100.00;101425.91;5075965;28;20313;-76
2024/03/12 10:02:59;;;;;;;;;;;;;;;7.74;100.00;101425.88;5076114;28;19928;-76
2024/03/12 10:05:25;;;;;;;;;;;;;;;7.72;100.00;101430.28;5082499;28;19987;-76
2024/03/12 10:08:07;;;;;;;;;;;;;;;7.73;100.00;101426.75;5085477;28;19924;-77
2024/03/12 10:10:36;;;;;;;;;;;;;;;7.76;100.00;101432.78;5084382;28;19920;-77
2024/03/12 10:13:03;;;;;;;;;;;;;;;7.79;100.00;101424.91;5087526;28;20150;-76
2024/03/12 10:15:29;;;;;;;;;;;;;;;7.83;100.00;101423.94;5085621;28;19991;-77
2024/03/12 10:17:59;;;;;;;;;;;;;;;7.88;100.00;101427.31;5085611;28;19924;-76
2024/03/12 10:20:24;;;;;;;;;;;;;;;7.92;100.00;101422.06;5081302;28;19920;-76
2024/03/12 10:23:03;;;;;;;;;;;;;;;7.97;100.00;101428.91;5084940;28;20189;-76
2024/03/12 10:25:30;;;;;;;;;;;;;;;7.96;100.00;101416.72;5081407;28;19943;-76
2024/03/12 10:27:55;;;;;;;;;;;;;;;7.94;100.00;101425.50;5082283;28;20028;-76
2024/03/12 10:30:26;;;;;;;;;;;;;;;8.02;100.00;101419.22;5084872;28;19927;-76
2024/03/12 10:32:51;;;;;;;;;;;;;;;8.12;100.00;101417.28;5085334;28;19920;-76
2024/03/12 10:35:18;;;;;;;;;;;;;;;8.19;100.00;101413.66;5085261;28;20181;-76
2024/03/12 10:37:48;;;;;;;;;;;;;;;8.31;100.00;101415.13;5083582;28;19974;-76
2024/03/12 10:40:19;;;;;;;;;;;;;;;8.40;100.00;101409.72;5086939;28;19939;-77
2024/03/12 10:42:57;;;;;;;;;;;;;;;8.46;100.00;101406.16;5087301;28;19955;-76
2024/03/12 10:45:24;;;;;;;;;;;;;;;8.51;100.00;101406.88;5090838;28;19920;-76
2024/03/12 10:47:49;;;;;;;;;;;;;;;8.58;100.00;101411.06;5088580;28;20176;-76
2024/03/12 10:50:16;;;;;;;;;;;;;;;8.60;100.00;101406.69;5090794;28;20223;-77
2024/03/12 10:52:43;;;;;;;;;;;;;;;8.62;100.00;101410.13;5091964;28;20208;-77
2024/03/12 10:55:10;;;;;;;;;;;;;;;8.64;100.00;101412.66;5093308;28;19920;-76
2024/03/12 10:57:37;;;;;;;;;;;;;;;8.64;100.00;101412.66;5092822;28;20077;-76
2024/03/12 11:00:07;;;;;;;;;;;;;;;8.59;100.00;101404.09;5091625;28;19926;-77
2024/03/12 11:02:34;;;;;;;;;;;;;;;8.60;100.00;101411.03;5091164;28;19920;-76
2024/03/12 11:05:00;;;;;;;;;;;;;;;8.61;100.00;101403.16;5091757;28;19970;-77
2024/03/12 11:07:27;;;;;;;;;;;;;;;8.59;100.00;101417.16;5089402;28;19924;-76
2024/03/12 11:09:53;;;;;;;;;;;;;;;8.59;100.00;101404.97;5091107;28;19920;-76
2024/03/12 11:12:22;;;;;;;;;;;;;;;8.67;100.00;101401.31;5091576;28;19919;-76
2024/03/12 11:14:50;;;;;;;;;;;;;;;8.75;100.00;101395.00;5093270;28;19920;-76
2024/03/12 11:17:28;;;;;;;;;;;;;;;8.81;100.00;101400.06;5090636;28;19951;-76
2024/03/12 11:19:56;;;;;;;;;;;;;;;8.78;100.00;101389.69;5090958;28;20303;-77
2024/03/12 11:22:23;;;;;;;;;;;;;;;8.84;100.00;101389.56;5092260;28;19920;-76
2024/03/12 11:24:49;;;;;;;;;;;;;;;8.91;100.00;101385.03;5093354;28;20112;-76
2024/03/12 11:27:21;;;;;;;;;;;;;;;8.98;100.00;101391.81;5091851;28;19927;-76
2024/03/12 11:30:04;;;;;;;;;;;;;;;9.00;100.00;101389.16;5090592;28;20220;-76
2024/03/12 11:32:33;;;;;;;;;;;;;;;9.00;100.00;101392.66;5089331;28;19920;-76
2024/03/12 11:35:17;;;;;;;;;;;;;;;9.05;100.00;101382.06;5091792;28;20123;-77
2024/03/12 11:37:54;;;;;;;;;;;;;;;9.12;100.00;101383.63;5088442;28;20190;-76
2024/03/12 11:40:26;;;;;;;;;;;;;;;9.16;100.00;101382.66;5092529;28;19926;-76
2024/03/12 11:42:53;;;;;;;;;;;;;;;9.22;100.00;101379.91;5092339;28;20270;-76
2024/03/12 11:45:33;;;;;;;;;;;;;;;9.28;100.00;101384.09;5092373;28;20108;-76
2024/03/12 11:47:59;;;;;;;;;;;;;;;9.28;100.00;101378.88;5089696;28;19931;-77
2024/03/12 11:50:33;;;;;;;;;;;;;;;9.34;100.00;101380.47;5091303;28;19916;-76
2024/03/12 11:53:17;;;;;;;;;;;;;;;9.31;100.00;101378.75;5091330;28;20118;-77
2024/03/12 11:56:05;;;;;;;;;;;;;;;9.34;100.00;101364.78;5087543;28;19920;-76
2024/03/12 11:58:31;;;;;;;;;;;;;;;9.39;100.00;101370.75;5090022;28;20219;-77
2024/03/12 12:00:57;;;;;;;;;;;;;;;9.43;100.00;101367.13;5090171;28;19920;-76
2024/03/12 12:03:23;;;;;;;;;;;;;;;9.48;100.00;101369.59;5086962;28;19924;-76
2024/03/12 12:05:50;;;;;;;;;;;;;;;9.51;100.00;101372.16;5085219;28;19920;-77
2024/03/12 12:08:15;;;;;;;;;;;;;;;9.52;100.00;101377.34;5088206;28;19930;-76
2024/03/12 12:10:42;;;;;;;;;;;;;;;9.53;100.00;101375.56;5085122;28;19987;-76
2024/03/12 12:13:16;;;;;;;;;;;;;;;9.52;100.00;101371.25;5088028;28;20007;-77
2024/03/12 12:15:55;;;;;;;;;;;;;;;9.51;100.00;101372.16;5084317;28;19924;-76
2024/03/12 12:18:21;;;;;;;;;;;;;;;9.55;100.00;101373.78;5088677;28;19924;-77
2024/03/12 12:20:47;;;;;;;;;;;;;;;9.58;100.00;101365.84;5091387;28;19927;-76
2024/03/12 12:23:13;;;;;;;;;;;;;;;9.58;100.00;101351.00;5091736;28;19916;-77
2024/03/12 12:25:38;;;;;;;;;;;;;;;9.57;100.00;101361.53;5092236;28;19973;-77
2024/03/12 12:28:07;;;;;;;;;;;;;;;9.55;100.00;101353.72;5090680;28;19931;-77
2024/03/12 12:30:35;;;;;;;;;;;;;;;9.54;100.00;101364.22;5091245;28;19919;-76
2024/03/12 12:33:01;;;;;;;;;;;;;;;9.54;100.00;101356.38;5090108;28;20067;-77
2024/03/12 12:35:28;;;;;;;;;;;;;;;9.56;100.00;101358.03;5090547;28;20028;-76
2024/03/12 12:37:54;;;;;;;;;;;;;;;9.61;100.00;101356.16;5089925;28;19931;-77
2024/03/12 12:40:21;;;;;;;;;;;;;;;9.62;100.00;101357.00;5089608;28;19920;-76
2024/03/12 12:42:53;;;;;;;;;;;;;;;9.63;100.00;101355.28;5088113;28;20176;-77